N1AE EDDL-LKPR
Flight info
| Callsign | N1AE |
|---|---|
| Flight time | N/A |
| Altitude | 35000 |
| Route | MEVEL L179 MISRI Z851 ELTUK Z47 EXOBA DCT NOMKA DCT SUVUT L620 PIKIB T620 LALUK DCT GOLOP |
| Aircraft | GLF5/M-SFGHIRWXY/S |
Departure
| Time | 2026-05-04 15:28 |
|---|---|
| Airport | Düsseldorf Airport (EDDL) |
Arrival
| Time | N/A |
|---|---|
| Airport | Václav Havel Airport Prague (LKPR) |
| Time | Latitude | Longitude | Altitude | Speed | Heading |
|---|---|---|---|---|---|
| 2026-05-04 15:10 | 51.28940 | 6.78153 | 128 ft | 0 kts | 142° |
| 2026-05-04 15:25 | 51.28936 | 6.78159 | 128 ft | 4 kts | 136° |
| 2026-05-04 15:25 | 51.28966 | 6.78249 | 128 ft | 16 kts | 22° |
| 2026-05-04 15:25 | 51.29075 | 6.78208 | 127 ft | 16 kts | 355° |
| 2026-05-04 15:26 | 51.29258 | 6.78388 | 133 ft | 14 kts | 54° |
| 2026-05-04 15:26 | 51.29313 | 6.78505 | 136 ft | 12 kts | 52° |
| 2026-05-04 15:26 | 51.29459 | 6.78569 | 140 ft | 14 kts | 352° |
| 2026-05-04 15:27 | 51.29550 | 6.78509 | 140 ft | 13 kts | 300° |
| 2026-05-04 15:27 | 51.29449 | 6.78317 | 135 ft | 11 kts | 228° |
| 2026-05-04 15:28 | 51.28814 | 6.76977 | 365 ft | 153 kts | 233° |
| 2026-05-04 15:28 | 51.28217 | 6.75650 | 1643 ft | 141 kts | 231° |
| 2026-05-04 15:28 | 51.27623 | 6.72399 | 2692 ft | 205 kts | 290° |
| 2026-05-04 15:29 | 51.28250 | 6.70450 | 4028 ft | 201 kts | 300° |
| 2026-05-04 15:30 | 51.35168 | 6.69164 | 7385 ft | 293 kts | 2° |
| 2026-05-04 15:30 | 51.41056 | 6.69564 | 10553 ft | 309 kts | 357° |
| 2026-05-04 15:31 | 51.45790 | 6.69580 | 11237 ft | 363 kts | 358° |
| 2026-05-04 15:31 | 51.48287 | 6.69594 | 12596 ft | 356 kts | 356° |
| 2026-05-04 15:32 | 51.55981 | 6.69617 | 15155 ft | 375 kts | 355° |
| 2026-05-04 15:32 | 51.61273 | 6.70908 | 16474 ft | 409 kts | 21° |
| 2026-05-04 15:33 | 51.65454 | 6.77154 | 18231 ft | 429 kts | 50° |
| 2026-05-04 15:34 | 51.70753 | 6.88647 | 20529 ft | 452 kts | 50° |
| 2026-05-04 15:34 | 51.72636 | 6.92755 | 21320 ft | 460 kts | 50° |
| 2026-05-04 15:34 | 51.76490 | 7.01186 | 22985 ft | 475 kts | 50° |
| 2026-05-04 15:35 | 51.79685 | 7.10686 | 24298 ft | 501 kts | 77° |
| 2026-05-04 15:35 | 51.79827 | 7.16379 | 25138 ft | 502 kts | 99° |
| 2026-05-04 15:35 | 51.78877 | 7.21774 | 25749 ft | 501 kts | 119° |
| 2026-05-04 15:36 | 51.75136 | 7.30880 | 27161 ft | 500 kts | 131° |
| 2026-05-04 15:36 | 51.73111 | 7.35457 | 27548 ft | 512 kts | 131° |
| 2026-05-04 15:36 | 51.71016 | 7.40189 | 28168 ft | 518 kts | 131° |
| 2026-05-04 15:37 | 51.68926 | 7.44902 | 28864 ft | 521 kts | 131° |
| 2026-05-04 15:37 | 51.67080 | 7.49979 | 29154 ft | 544 kts | 116° |
| 2026-05-04 15:37 | 51.66201 | 7.55962 | 29692 ft | 555 kts | 95° |
| 2026-05-04 15:37 | 51.66192 | 7.62131 | 30421 ft | 554 kts | 90° |
| 2026-05-04 15:38 | 51.65943 | 7.68383 | 30764 ft | 563 kts | 97° |
| 2026-05-04 15:38 | 51.65543 | 7.74698 | 31293 ft | 567 kts | 97° |
| 2026-05-04 15:38 | 51.65139 | 7.81010 | 32122 ft | 564 kts | 97° |
| 2026-05-04 15:38 | 51.64731 | 7.87365 | 32694 ft | 567 kts | 97° |
| 2026-05-04 15:39 | 51.64320 | 7.93716 | 33306 ft | 569 kts | 96° |
| 2026-05-04 15:39 | 51.63910 | 7.99996 | 33985 ft | 568 kts | 96° |
| 2026-05-04 15:39 | 51.63071 | 8.12686 | 34962 ft | 562 kts | 96° |
| 2026-05-04 15:40 | 51.62654 | 8.18923 | 34926 ft | 563 kts | 96° |
| 2026-05-04 15:40 | 51.61807 | 8.31424 | 34969 ft | 565 kts | 96° |
| 2026-05-04 15:41 | 51.60932 | 8.44138 | 34973 ft | 565 kts | 96° |
| 2026-05-04 15:41 | 51.60057 | 8.56650 | 34975 ft | 565 kts | 96° |
| 2026-05-04 15:41 | 51.59418 | 8.62891 | 34909 ft | 563 kts | 108° |
| 2026-05-04 15:42 | 51.57833 | 8.68479 | 34911 ft | 548 kts | 129° |
| 2026-05-04 15:42 | 51.54664 | 8.79680 | 34903 ft | 564 kts | 99° |
| 2026-05-04 15:42 | 51.54554 | 8.85990 | 35025 ft | 564 kts | 87° |
| 2026-05-04 15:43 | 51.54312 | 8.92293 | 34969 ft | 565 kts | 98° |
| 2026-05-04 15:43 | 51.53181 | 9.04753 | 34972 ft | 562 kts | 98° |
| 2026-05-04 15:44 | 51.52054 | 9.17149 | 34966 ft | 560 kts | 97° |
| 2026-05-04 15:44 | 51.50918 | 9.29497 | 34970 ft | 561 kts | 97° |
| 2026-05-04 15:45 | 51.49758 | 9.41942 | 34972 ft | 561 kts | 97° |
| 2026-05-04 15:45 | 51.48593 | 9.54295 | 34974 ft | 561 kts | 97° |
| 2026-05-04 15:46 | 51.47421 | 9.66591 | 34973 ft | 561 kts | 98° |
| 2026-05-04 15:46 | 51.46226 | 9.78977 | 34965 ft | 561 kts | 98° |
| 2026-05-04 15:47 | 51.45024 | 9.91296 | 34965 ft | 561 kts | 98° |
| 2026-05-04 15:47 | 51.43804 | 10.03654 | 34966 ft | 561 kts | 98° |
| 2026-05-04 15:48 | 51.42575 | 10.15970 | 34970 ft | 561 kts | 98° |
| 2026-05-04 15:48 | 51.40703 | 10.34474 | 34985 ft | 561 kts | 98° |
| 2026-05-04 15:49 | 51.39439 | 10.46806 | 35000 ft | 561 kts | 98° |